Terminal Aerodrome Forecast
Issued by NWS

Home | Current Version | Previous Version | Text Only | Print | Product List | Glossary On
Versions: 1 2 3 4 5 6 7 8 9 10 11 12 13 14 15 16 17 18 19 20 21 22 23 24 25 26 27 28 29 30 31 32
000
FTUS46 KOTX 192323
TAFPUW
TAF
KPUW 192323Z 2000/2024 25010KT P6SM SCT045 BKN080
     FM200800 13004KT P6SM OVC050
     FM201500 12010KT 6SM -RA BR SCT010 OVC020
     FM201900 13011KT 4SM -RA BR OVC015=

USA.gov is the U.S. government's official web portal to all federal, state and local government web resources and services.